createdAt,value
2018-04-19T00:01:32.921Z,13.90
2018-04-19T00:04:00.399Z,13.80
2018-04-19T00:06:27.970Z,13.90
2018-04-19T00:08:56.205Z,14.10
2018-04-19T00:11:23.700Z,14.10
2018-04-19T00:13:51.162Z,14.20
2018-04-19T00:16:19.395Z,14.10
2018-04-19T00:18:46.877Z,14.00
2018-04-19T00:21:15.872Z,13.80
2018-04-19T00:23:43.425Z,13.80
2018-04-19T00:26:10.889Z,13.70
2018-04-19T00:28:38.390Z,13.60
2018-04-19T00:31:05.952Z,13.50
2018-04-19T00:33:33.509Z,13.40
2018-04-19T00:36:00.977Z,13.30
2018-04-19T00:38:28.458Z,13.30
2018-04-19T00:40:55.949Z,13.30
2018-04-19T00:43:24.181Z,13.20
2018-04-19T00:45:51.649Z,13.10
2018-04-19T00:48:19.137Z,13.20
2018-04-19T00:50:47.363Z,13.10
2018-04-19T00:53:14.825Z,13.10
2018-04-19T00:55:42.300Z,13.10
2018-04-19T00:58:09.766Z,13.00
2018-04-19T01:00:37.270Z,13.00
2018-04-19T01:03:04.729Z,13.10
2018-04-19T01:05:32.195Z,13.10
2018-04-19T01:07:59.669Z,13.20
2018-04-19T01:10:27.137Z,13.30
2018-04-19T01:12:54.612Z,13.20
2018-04-19T01:15:22.110Z,13.10
2018-04-19T01:17:49.572Z,13.00
2018-04-19T01:20:17.034Z,13.00
2018-04-19T01:22:44.509Z,13.00
2018-04-19T01:25:11.989Z,13.00
2018-04-19T01:27:39.449Z,13.20
2018-04-19T01:30:07.697Z,13.10
2018-04-19T01:32:35.168Z,13.10
2018-04-19T01:35:02.640Z,12.90
2018-04-19T01:37:30.137Z,12.90
2018-04-19T01:39:57.595Z,12.90
2018-04-19T01:42:25.064Z,12.80
2018-04-19T01:44:52.552Z,12.80
2018-04-19T01:47:20.013Z,12.70
2018-04-19T01:49:47.481Z,12.60
2018-04-19T01:52:15.744Z,12.50
2018-04-19T01:54:43.213Z,12.50
2018-04-19T01:57:11.439Z,12.40
2018-04-19T01:59:38.920Z,12.30
2018-04-19T02:02:06.386Z,12.30
2018-04-19T02:04:33.867Z,12.20
2018-04-19T02:07:02.103Z,12.20
2018-04-19T02:09:29.587Z,12.10
2018-04-19T02:11:57.825Z,12.10
2018-04-19T02:14:25.283Z,12.00
2018-04-19T02:16:52.764Z,12.00
2018-04-19T02:19:20.233Z,12.00
2018-04-19T02:21:48.468Z,11.80
2018-04-19T02:24:15.944Z,11.80
2018-04-19T02:26:43.429Z,11.80
2018-04-19T02:29:11.669Z,11.70
2018-04-19T02:31:39.136Z,11.70
2018-04-19T02:34:06.603Z,11.60
2018-04-19T02:36:34.086Z,11.70
2018-04-19T02:39:01.617Z,11.70
2018-04-19T02:41:29.849Z,11.70
2018-04-19T02:43:57.325Z,11.70
2018-04-19T02:46:24.796Z,11.70
2018-04-19T02:48:52.272Z,11.60
2018-04-19T02:51:20.496Z,11.60
2018-04-19T02:53:47.957Z,11.60
2018-04-19T02:56:15.444Z,11.60
2018-04-19T02:58:43.730Z,11.60
2018-04-19T03:01:11.954Z,11.60
2018-04-19T03:03:39.437Z,11.60
2018-04-19T03:06:07.684Z,11.50
2018-04-19T03:08:35.166Z,11.50
2018-04-19T03:11:02.625Z,11.50
2018-04-19T03:13:30.094Z,11.50
2018-04-19T03:15:57.581Z,11.50
2018-04-19T03:18:25.055Z,11.60
2018-04-19T03:20:52.511Z,11.90
2018-04-19T03:23:20.001Z,12.10
2018-04-19T03:25:47.461Z,12.20
2018-04-19T03:28:14.944Z,12.30
2018-04-19T03:30:43.168Z,12.40
2018-04-19T03:33:10.644Z,12.40
2018-04-19T03:35:38.108Z,12.40
2018-04-19T03:38:05.572Z,12.40
2018-04-19T03:40:33.052Z,12.40
2018-04-19T03:43:01.305Z,12.50
2018-04-19T03:45:28.781Z,12.50
2018-04-19T03:47:57.025Z,12.60
2018-04-19T03:50:24.511Z,12.60
2018-04-19T03:52:52.745Z,12.70
2018-04-19T03:55:20.204Z,12.70
2018-04-19T03:57:47.690Z,12.70
2018-04-19T04:00:15.135Z,12.60
2018-04-19T04:02:42.614Z,12.60
2018-04-19T04:05:10.849Z,12.60
2018-04-19T04:07:38.354Z,12.60
2018-04-19T04:10:06.568Z,12.70
2018-04-19T04:12:34.028Z,12.70
2018-04-19T04:15:01.513Z,12.70
2018-04-19T04:17:40.674Z,12.70
2018-04-19T04:20:10.529Z,12.70
2018-04-19T04:22:49.961Z,12.70
2018-04-19T04:25:17.436Z,12.70
2018-04-19T04:27:44.901Z,12.70
2018-04-19T04:30:12.368Z,12.70
2018-04-19T04:32:39.873Z,12.70
2018-04-19T04:35:07.329Z,12.70
2018-04-19T04:37:34.821Z,12.70
2018-04-19T04:40:02.294Z,12.70
2018-04-19T04:42:31.260Z,12.80
2018-04-19T04:44:58.796Z,12.80
2018-04-19T04:47:26.252Z,12.70
2018-04-19T04:49:53.736Z,12.70
2018-04-19T04:52:21.201Z,12.70
2018-04-19T04:54:48.720Z,12.70
2018-04-19T04:57:16.197Z,12.70
2018-04-19T04:59:43.676Z,12.80
2018-04-19T05:02:11.129Z,12.80
2018-04-19T05:04:38.604Z,13.00
2018-04-19T05:07:06.832Z,13.20
2018-04-19T05:09:34.378Z,13.20
2018-04-19T05:12:01.836Z,13.20
2018-04-19T05:14:29.346Z,13.40
2018-04-19T05:16:56.800Z,13.70
2018-04-19T05:19:24.306Z,14.00
2018-04-19T05:21:51.769Z,14.40
2018-04-19T05:24:19.239Z,15.00
2018-04-19T05:26:46.700Z,15.40
2018-04-19T05:29:14.190Z,15.60
2018-04-19T05:31:41.649Z,15.80
2018-04-19T05:34:09.881Z,16.40
2018-04-19T05:36:37.357Z,16.40
2018-04-19T05:39:04.831Z,16.10
2018-04-19T05:41:32.280Z,16.10
2018-04-19T05:43:59.775Z,16.10
2018-04-19T05:46:27.232Z,16.20
2018-04-19T05:48:54.705Z,16.10
2018-04-19T05:51:22.262Z,15.90
2018-04-19T05:53:49.737Z,15.90
2018-04-19T05:56:17.222Z,16.20
2018-04-19T05:58:44.681Z,16.70
2018-04-19T06:01:12.141Z,16.90
2018-04-19T06:03:40.380Z,16.90
2018-04-19T06:06:07.844Z,16.90
2018-04-19T06:08:35.331Z,16.90
2018-04-19T06:11:02.801Z,17.10
2018-04-19T06:13:31.024Z,17.60
2018-04-19T06:15:58.499Z,17.60
2018-04-19T06:18:25.961Z,17.50
2018-04-19T06:20:53.418Z,17.50
2018-04-19T06:23:20.888Z,17.50
2018-04-19T06:25:49.137Z,17.40
2018-04-19T06:28:16.634Z,17.40
2018-04-19T06:30:44.869Z,17.70
2018-04-19T06:33:12.332Z,17.70
2018-04-19T06:35:39.808Z,18.10
2018-04-19T06:38:08.055Z,19.00
2018-04-19T06:40:35.520Z,19.00
2018-04-19T06:43:03.004Z,19.50
2018-04-19T06:45:30.454Z,19.60
2018-04-19T06:47:58.771Z,19.50
2018-04-19T06:50:26.332Z,19.40
2018-04-19T06:52:53.796Z,19.60
2018-04-19T06:55:21.284Z,19.80
2018-04-19T06:57:48.801Z,20.10
2018-04-19T07:00:16.360Z,20.30
2018-04-19T07:02:43.836Z,20.70
2018-04-19T07:05:11.297Z,21.00
2018-04-19T07:07:39.805Z,20.80
2018-04-19T07:10:07.259Z,20.50
2018-04-19T07:12:34.816Z,20.60
2018-04-19T07:15:02.289Z,20.60
2018-04-19T07:17:30.515Z,20.70
2018-04-19T07:19:57.983Z,20.70
2018-04-19T07:22:25.513Z,20.40
2018-04-19T07:24:52.997Z,20.30
2018-04-19T07:27:20.471Z,20.80
2018-04-19T07:29:47.935Z,21.20
2018-04-19T07:32:15.414Z,21.30
2018-04-19T07:34:43.656Z,20.20
2018-04-19T07:37:11.171Z,20.20
2018-04-19T07:39:38.676Z,20.30
2018-04-19T07:42:06.152Z,20.20
2018-04-19T07:44:34.393Z,19.80
2018-04-19T07:47:01.869Z,19.80
2018-04-19T07:49:29.349Z,19.80
2018-04-19T07:51:57.569Z,19.90
2018-04-19T07:54:25.061Z,19.90
2018-04-19T07:56:52.509Z,20.10
2018-04-19T07:59:19.965Z,20.30
2018-04-19T08:01:47.440Z,20.30
2018-04-19T08:04:15.660Z,20.50
2018-04-19T08:06:43.157Z,20.50
2018-04-19T08:09:10.618Z,20.80
2018-04-19T08:11:38.077Z,20.90
2018-04-19T08:14:05.552Z,21.10
2018-04-19T08:16:33.769Z,21.10
2018-04-19T08:19:01.261Z,21.10
2018-04-19T08:21:28.736Z,21.20
2018-04-19T08:23:56.957Z,21.10
2018-04-19T08:26:24.432Z,21.10
2018-04-19T08:28:52.009Z,21.20
2018-04-19T08:31:19.465Z,21.30
2018-04-19T08:33:46.970Z,21.50
2018-04-19T08:36:14.426Z,21.50
2018-04-19T08:38:41.981Z,21.50
2018-04-19T08:41:09.451Z,21.50
2018-04-19T08:43:36.916Z,21.70
2018-04-19T08:46:04.380Z,21.80
2018-04-19T08:48:31.912Z,22.00
2018-04-19T08:50:59.468Z,22.10
2018-04-19T08:53:27.025Z,22.20
2018-04-19T08:55:54.470Z,22.30
2018-04-19T08:58:21.928Z,22.50
2018-04-19T09:00:49.421Z,22.60
2018-04-19T09:03:16.885Z,22.70
2018-04-19T09:05:44.364Z,22.80
2018-04-19T09:08:11.829Z,22.80
2018-04-19T09:10:40.104Z,23.10
2018-04-19T09:13:08.353Z,23.20
2018-04-19T09:15:35.816Z,23.20
2018-04-19T09:18:03.280Z,23.50
2018-04-19T09:20:31.521Z,23.90
2018-04-19T09:22:59.059Z,23.90
2018-04-19T09:25:26.457Z,23.90
2018-04-19T09:27:53.913Z,23.70
2018-04-19T09:30:21.372Z,23.50
2018-04-19T09:32:49.618Z,23.80
2018-04-19T09:35:17.070Z,23.80
2018-04-19T09:37:44.532Z,24.00
2018-04-19T09:40:12.025Z,24.10
2018-04-19T09:42:39.490Z,23.90
2018-04-19T09:45:06.952Z,24.00
2018-04-19T09:47:35.209Z,24.30
2018-04-19T09:50:02.678Z,24.20
2018-04-19T09:52:30.906Z,25.90
2018-04-19T09:54:58.385Z,25.90
2018-04-19T09:57:26.612Z,27.20
2018-04-19T09:59:54.070Z,27.20
2018-04-19T10:02:27.315Z,27.20
2018-04-19T10:04:54.772Z,27.30
2018-04-19T10:07:22.250Z,27.00
2018-04-19T10:09:50.469Z,26.90
2018-04-19T10:12:17.944Z,26.90
2018-04-19T10:14:45.451Z,27.00
2018-04-19T10:17:12.888Z,27.20
2018-04-19T10:19:41.132Z,27.40
2018-04-19T10:22:08.611Z,27.40
2018-04-19T10:24:36.075Z,27.10
2018-04-19T10:27:03.620Z,27.10
2018-04-19T10:29:31.083Z,27.40
2018-04-19T10:31:58.529Z,27.80
2018-04-19T10:34:26.024Z,28.00
2018-04-19T10:36:54.248Z,28.10
2018-04-19T10:39:21.725Z,28.10
2018-04-19T10:41:49.184Z,27.90
2018-04-19T10:44:16.640Z,27.90
2018-04-19T10:46:44.149Z,27.90
2018-04-19T10:49:11.630Z,28.10
2018-04-19T10:51:39.084Z,28.10
2018-04-19T10:54:06.588Z,27.90
2018-04-19T10:56:34.020Z,28.00
2018-04-19T10:59:01.500Z,28.20
2018-04-19T11:01:29.732Z,28.60
2018-04-19T11:03:57.193Z,28.60
2018-04-19T11:06:24.684Z,28.40
2018-04-19T11:08:52.926Z,28.70
2018-04-19T11:11:20.379Z,28.70
2018-04-19T11:13:47.861Z,28.60
2018-04-19T11:16:16.094Z,28.50
2018-04-19T11:18:43.565Z,28.50
2018-04-19T11:21:11.017Z,28.40
2018-04-19T11:23:38.501Z,28.50
2018-04-19T11:26:05.975Z,28.30
2018-04-19T11:28:34.189Z,28.50
2018-04-19T11:31:01.663Z,28.40
2018-04-19T11:33:29.143Z,28.20
2018-04-19T11:35:56.597Z,28.40
2018-04-19T11:38:24.060Z,28.70
2018-04-19T11:40:52.282Z,29.00
2018-04-19T11:43:19.740Z,29.00
2018-04-19T11:45:47.221Z,28.90
2018-04-19T11:48:14.680Z,29.00
2018-04-19T11:50:42.157Z,28.70
2018-04-19T11:53:10.393Z,28.60
2018-04-19T11:55:37.867Z,28.60
2018-04-19T11:58:08.052Z,28.80
2018-04-19T12:00:35.511Z,28.60
2018-04-19T12:03:02.980Z,28.50
2018-04-19T12:05:30.444Z,28.70
2018-04-19T12:07:57.908Z,29.20
2018-04-19T12:10:25.395Z,29.30
2018-04-19T12:12:52.996Z,29.90
2018-04-19T12:15:20.489Z,29.70
2018-04-19T12:17:47.942Z,29.40
2018-04-19T12:20:15.403Z,28.90
2018-04-19T12:22:42.896Z,29.00
2018-04-19T12:25:11.130Z,29.80
2018-04-19T12:27:38.625Z,29.80
2018-04-19T12:30:06.853Z,30.00
2018-04-19T12:32:34.313Z,30.00
2018-04-19T12:35:01.829Z,30.60
2018-04-19T12:37:29.391Z,30.70
2018-04-19T12:39:56.858Z,30.20
2018-04-19T12:42:24.377Z,29.50
2018-04-19T12:44:51.820Z,29.40
2018-04-19T12:47:19.279Z,29.60
2018-04-19T12:49:46.749Z,29.60
2018-04-19T12:52:14.969Z,29.70
2018-04-19T12:54:42.426Z,29.70
2018-04-19T12:57:09.895Z,29.30
2018-04-19T12:59:37.429Z,29.00
2018-04-19T13:02:04.885Z,28.90
2018-04-19T13:04:32.385Z,29.30
2018-04-19T13:06:59.862Z,29.40
2018-04-19T13:09:27.324Z,29.70
2018-04-19T13:11:55.574Z,29.70
2018-04-19T13:14:23.021Z,29.60
2018-04-19T13:16:50.500Z,29.30
2018-04-19T13:19:17.963Z,28.90
2018-04-19T13:21:46.192Z,28.90
2018-04-19T13:24:13.660Z,28.80
2018-04-19T13:26:41.120Z,28.80
2018-04-19T13:29:08.588Z,28.50
2018-04-19T13:31:36.099Z,28.40
2018-04-19T13:34:03.658Z,28.60
2018-04-19T13:36:31.229Z,28.60
2018-04-19T13:38:58.708Z,28.80
2018-04-19T13:41:26.170Z,28.70
2018-04-19T13:43:53.656Z,28.50
2018-04-19T13:46:21.880Z,28.40
2018-04-19T13:48:49.336Z,28.40
2018-04-19T13:51:16.833Z,28.40
2018-04-19T13:53:44.292Z,28.40
2018-04-19T13:56:13.333Z,28.40
2018-04-19T13:58:40.848Z,28.30
2018-04-19T14:01:09.161Z,28.20
2018-04-19T14:03:36.690Z,28.20
2018-04-19T14:06:04.935Z,28.20
2018-04-19T14:08:32.404Z,28.20
2018-04-19T14:10:59.902Z,28.20
2018-04-19T14:13:27.655Z,28.20
2018-04-19T14:15:55.282Z,28.10
2018-04-19T14:18:24.349Z,28.20
2018-04-19T14:20:51.819Z,28.20
2018-04-19T14:23:19.291Z,28.30
2018-04-19T14:25:48.269Z,28.20
2018-04-19T14:28:15.724Z,28.20
2018-04-19T14:30:43.214Z,28.10
2018-04-19T14:33:11.861Z,28.10
2018-04-19T14:35:39.308Z,28.10
2018-04-19T14:38:06.804Z,28.40
2018-04-19T14:40:35.025Z,28.40
2018-04-19T14:43:02.481Z,28.40
2018-04-19T14:45:29.964Z,28.50
2018-04-19T14:47:57.416Z,28.50
2018-04-19T14:50:25.489Z,28.20
2018-04-19T14:52:52.957Z,28.20
2018-04-19T14:55:21.235Z,28.20
2018-04-19T14:57:48.786Z,28.10
2018-04-19T15:00:16.222Z,28.00
2018-04-19T15:02:43.696Z,27.90
2018-04-19T15:05:11.163Z,27.80
2018-04-19T15:07:38.613Z,27.90
2018-04-19T15:10:06.848Z,28.00
2018-04-19T15:12:34.306Z,28.00
2018-04-19T15:15:01.782Z,27.90
2018-04-19T15:17:29.281Z,27.90
2018-04-19T15:19:57.564Z,28.00
2018-04-19T15:22:24.992Z,28.00
2018-04-19T15:24:52.469Z,28.00
2018-04-19T15:27:20.697Z,27.90
2018-04-19T15:29:48.188Z,27.90
2018-04-19T15:32:15.665Z,27.90
2018-04-19T15:34:43.888Z,27.80
2018-04-19T15:37:11.420Z,27.80
2018-04-19T15:39:38.881Z,27.80
2018-04-19T15:42:06.335Z,27.70
2018-04-19T15:44:33.825Z,27.60
2018-04-19T15:47:01.282Z,27.60
2018-04-19T15:49:28.745Z,27.60
2018-04-19T15:51:56.985Z,27.50
2018-04-19T15:54:24.456Z,27.50
2018-04-19T15:56:51.944Z,27.50
2018-04-19T15:59:19.407Z,27.60
2018-04-19T16:01:48.893Z,27.50
2018-04-19T16:04:16.373Z,27.50
2018-04-19T16:06:44.608Z,27.50
2018-04-19T16:09:12.060Z,27.50
2018-04-19T16:11:39.532Z,27.40
2018-04-19T16:14:06.991Z,27.40
2018-04-19T16:16:34.513Z,27.30
2018-04-19T16:19:01.988Z,27.30
2018-04-19T16:21:29.417Z,27.30
2018-04-19T16:23:56.931Z,27.30
2018-04-19T16:26:24.457Z,27.30
2018-04-19T16:28:51.970Z,27.30
2018-04-19T16:31:20.337Z,27.20
2018-04-19T16:33:48.575Z,27.20
2018-04-19T16:36:16.413Z,27.20
2018-04-19T16:38:43.897Z,27.10
2018-04-19T16:41:11.368Z,27.10
2018-04-19T16:43:38.820Z,27.10
2018-04-19T16:46:06.336Z,27.00
2018-04-19T16:48:33.813Z,27.00
2018-04-19T16:51:01.762Z,27.00
2018-04-19T16:53:29.240Z,27.00
2018-04-19T16:55:56.697Z,26.90
2018-04-19T16:58:24.334Z,26.90
2018-04-19T17:00:51.816Z,26.80
2018-04-19T17:03:19.281Z,26.80
2018-04-19T17:05:46.739Z,26.70
2018-04-19T17:08:14.218Z,26.70
2018-04-19T17:10:43.177Z,26.50
2018-04-19T17:13:10.671Z,26.50
2018-04-19T17:15:38.130Z,26.60
2018-04-19T17:18:05.585Z,26.50
2018-04-19T17:20:33.886Z,26.40
2018-04-19T17:23:01.345Z,26.40
2018-04-19T17:25:29.684Z,26.30
2018-04-19T17:27:57.958Z,26.30
2018-04-19T17:30:25.385Z,26.30
2018-04-19T17:32:52.915Z,26.20
2018-04-19T17:35:20.370Z,26.00
2018-04-19T17:37:47.822Z,25.70
2018-04-19T17:40:15.349Z,25.60
2018-04-19T17:42:43.608Z,25.20
2018-04-19T17:45:11.057Z,25.20
2018-04-19T17:47:38.587Z,25.00
2018-04-19T17:50:06.050Z,24.80
2018-04-19T17:52:33.530Z,24.60
2018-04-19T17:55:01.003Z,24.40
2018-04-19T17:57:29.241Z,24.40
2018-04-19T17:59:56.770Z,24.40
2018-04-19T18:02:24.245Z,24.30
2018-04-19T18:04:51.722Z,24.30
2018-04-19T18:07:19.220Z,24.20
2018-04-19T18:09:47.464Z,24.10
2018-04-19T18:12:14.984Z,24.00
2018-04-19T18:14:42.459Z,24.00
2018-04-19T18:17:09.946Z,23.90
2018-04-19T18:19:37.427Z,23.80
2018-04-19T18:22:05.666Z,23.60
2018-04-19T18:24:33.168Z,23.60
2018-04-19T18:27:00.691Z,23.40
2018-04-19T18:29:28.175Z,23.40
2018-04-19T18:31:56.478Z,23.20
2018-04-19T18:34:23.956Z,23.20
2018-04-19T18:36:51.440Z,23.10
2018-04-19T18:39:18.950Z,23.10
2018-04-19T18:41:46.409Z,23.10
2018-04-19T18:44:13.884Z,23.10
2018-04-19T18:46:41.351Z,23.00
2018-04-19T18:49:08.812Z,23.00
2018-04-19T18:51:36.306Z,22.90
2018-04-19T18:54:04.545Z,22.90
2018-04-19T18:56:32.034Z,22.90
2018-04-19T18:59:00.286Z,22.80
2018-04-19T19:01:27.760Z,22.80
2018-04-19T19:03:56.003Z,22.80
2018-04-19T19:06:23.501Z,22.70
2018-04-19T19:08:51.748Z,22.60
2018-04-19T19:11:19.214Z,22.60
2018-04-19T19:13:46.720Z,22.50
2018-04-19T19:16:14.178Z,22.50
2018-04-19T19:18:53.438Z,22.40
2018-04-19T19:21:20.903Z,22.40
2018-04-19T19:23:48.379Z,22.30
2018-04-19T19:26:16.638Z,22.50
2018-04-19T19:28:44.097Z,22.40
2018-04-19T19:31:11.596Z,22.40
2018-04-19T19:33:39.062Z,22.40
2018-04-19T19:36:06.561Z,22.30
2018-04-19T19:38:34.079Z,22.10
2018-04-19T19:41:01.542Z,21.90
2018-04-19T19:43:29.042Z,21.70
2018-04-19T19:45:56.549Z,21.60
2018-04-19T19:48:24.109Z,21.50
2018-04-19T19:50:51.569Z,21.30
2018-04-19T19:53:19.028Z,21.10
2018-04-19T19:55:46.505Z,21.10
2018-04-19T19:58:13.989Z,21.10
2018-04-19T20:00:41.443Z,21.00
2018-04-19T20:03:08.951Z,21.00
2018-04-19T20:05:36.456Z,21.00
2018-04-19T20:08:04.066Z,21.10
2018-04-19T20:10:43.139Z,21.20
2018-04-19T20:13:10.612Z,21.30
2018-04-19T20:15:38.080Z,21.40
2018-04-19T20:18:06.331Z,21.50
2018-04-19T20:20:33.797Z,21.50
2018-04-19T20:23:01.281Z,21.50
2018-04-19T20:25:28.736Z,21.50
2018-04-19T20:27:56.253Z,21.50
2018-04-19T20:30:23.762Z,21.50
2018-04-19T20:32:51.223Z,21.40
2018-04-19T20:35:18.702Z,21.30
2018-04-19T20:37:46.168Z,21.20
2018-04-19T20:40:13.646Z,21.20
2018-04-19T20:42:41.103Z,21.10
2018-04-19T20:45:08.576Z,21.00
2018-04-19T20:47:36.822Z,20.90
2018-04-19T20:50:04.298Z,20.80
2018-04-19T20:52:31.755Z,20.70
2018-04-19T20:54:59.993Z,20.60
2018-04-19T20:57:27.460Z,20.50
2018-04-19T20:59:54.932Z,20.50
2018-04-19T21:02:22.401Z,20.50
2018-04-19T21:04:49.869Z,20.50
2018-04-19T21:07:18.116Z,20.50
2018-04-19T21:09:45.573Z,20.40
2018-04-19T21:12:13.044Z,20.40
2018-04-19T21:14:41.281Z,20.30
2018-04-19T21:17:08.761Z,20.20
2018-04-19T21:19:36.255Z,20.20
2018-04-19T21:22:03.712Z,20.00
2018-04-19T21:24:31.332Z,19.90
2018-04-19T21:26:58.776Z,19.70
2018-04-19T21:29:26.263Z,19.50
2018-04-19T21:31:53.712Z,19.30
2018-04-19T21:34:21.216Z,19.20
2018-04-19T21:36:48.722Z,19.20
2018-04-19T21:39:16.213Z,19.10
2018-04-19T21:41:43.733Z,18.80
2018-04-19T21:44:11.202Z,18.60
2018-04-19T21:46:39.456Z,18.20
2018-04-19T21:49:06.917Z,18.20
2018-04-19T21:51:34.380Z,18.00
2018-04-19T21:54:02.637Z,18.00
2018-04-19T21:56:30.102Z,18.00
2018-04-19T21:58:57.589Z,18.10
2018-04-19T22:01:25.811Z,18.10
2018-04-19T22:03:53.269Z,18.10
2018-04-19T22:06:20.748Z,18.10
2018-04-19T22:08:48.349Z,17.90
2018-04-19T22:11:16.562Z,17.40
2018-04-19T22:13:44.035Z,17.40
2018-04-19T22:16:11.501Z,17.40
2018-04-19T22:18:38.989Z,17.50
2018-04-19T22:21:07.209Z,17.70
2018-04-19T22:23:34.669Z,17.70
2018-04-19T22:26:02.156Z,17.80
2018-04-19T22:28:30.474Z,17.80
2018-04-19T22:30:58.032Z,17.80
2018-04-19T22:33:25.513Z,17.60
2018-04-19T22:35:52.977Z,17.50
2018-04-19T22:38:20.576Z,17.30
2018-04-19T22:40:48.799Z,17.40
2018-04-19T22:43:16.266Z,17.40
2018-04-19T22:45:43.759Z,17.60
2018-04-19T22:48:11.993Z,17.60
2018-04-19T22:50:39.484Z,17.60
2018-04-19T22:53:07.710Z,17.50
2018-04-19T22:55:35.164Z,17.40
2018-04-19T22:58:02.653Z,17.30
2018-04-19T23:00:30.125Z,17.30
2018-04-19T23:02:57.693Z,17.20
2018-04-19T23:05:25.237Z,17.00
2018-04-19T23:07:52.746Z,16.90
2018-04-19T23:10:20.201Z,16.80
2018-04-19T23:12:47.661Z,16.60
2018-04-19T23:15:15.140Z,16.40
2018-04-19T23:17:42.601Z,16.20
2018-04-19T23:20:10.076Z,16.10
2018-04-19T23:22:38.376Z,16.00
2018-04-19T23:25:06.662Z,16.00
2018-04-19T23:27:34.241Z,16.00
2018-04-19T23:30:01.748Z,16.00
2018-04-19T23:32:29.208Z,16.00
2018-04-19T23:34:57.456Z,16.10
2018-04-19T23:37:24.915Z,16.10
2018-04-19T23:39:52.373Z,16.20
2018-04-19T23:42:19.845Z,16.20
2018-04-19T23:44:47.324Z,16.20
2018-04-19T23:47:15.576Z,16.20
2018-04-19T23:49:43.145Z,16.20
2018-04-19T23:52:11.364Z,16.10
2018-04-19T23:54:38.888Z,16.10
2018-04-19T23:57:06.341Z,16.20
2018-04-19T23:59:34.568Z,16.20
